Time;durP1;ratioP1;P1;durP2;ratioP2;P2;SDS_P1;SDS_P2;PMS_P1;PMS_P2;Temp;Humidity;BMP_temperature;BMP_pressure;BME280_temperature;BME280_humidity;BME280_pressure;Samples;Min_cycle;Max_cycle;Signal;HPM_P1;HPM_P2
2024/01/15 00:00:28;;;;;;;53.38;27.67;;;;;;;-0.23;100.00;99055.94;5075323;28;20049;-43
2024/01/15 00:02:57;;;;;;;59.42;28.48;;;;;;;-0.24;100.00;99054.22;5075310;28;20090;-43
2024/01/15 00:05:25;;;;;;;55.08;27.52;;;;;;;-0.40;100.00;99047.81;5075696;28;20049;-43
2024/01/15 00:07:57;;;;;;;55.08;28.73;;;;;;;-0.45;100.00;99047.97;5075308;28;20456;-43
2024/01/15 00:10:27;;;;;;;58.67;28.30;;;;;;;-0.59;100.00;99043.19;5075880;28;20403;-43
2024/01/15 00:12:55;;;;;;;59.00;28.77;;;;;;;-0.51;100.00;99047.31;5075216;28;20474;-43
2024/01/15 00:15:24;;;;;;;53.15;28.13;;;;;;;-0.38;100.00;99048.63;5075247;28;20051;-43
2024/01/15 00:17:55;;;;;;;54.80;28.98;;;;;;;-0.26;100.00;99040.34;5074356;28;20048;-43
2024/01/15 00:20:26;;;;;;;58.45;28.92;;;;;;;-0.42;100.00;99031.28;5074972;28;20056;-44
2024/01/15 00:22:58;;;;;;;56.22;28.02;;;;;;;-0.30;100.00;99026.47;5074907;28;20092;-43
2024/01/15 00:25:27;;;;;;;61.22;29.92;;;;;;;-0.54;100.00;99008.16;5074732;28;20521;-43
2024/01/15 00:27:57;;;;;;;60.65;30.65;;;;;;;-0.57;100.00;99009.13;5074806;28;20045;-45
2024/01/15 00:30:26;;;;;;;56.47;29.98;;;;;;;-0.66;100.00;98998.97;5074435;28;20127;-44
2024/01/15 00:32:55;;;;;;;57.17;28.08;;;;;;;-0.56;100.00;98994.25;5073531;28;20137;-45
2024/01/15 00:35:23;;;;;;;60.10;30.02;;;;;;;-0.37;100.00;98990.06;5072784;28;20049;-44
2024/01/15 00:37:51;;;;;;;56.47;28.48;;;;;;;-0.35;100.00;98988.25;5074162;28;20052;-43
2024/01/15 00:40:20;;;;;;;54.15;28.58;;;;;;;-0.48;100.00;98993.09;5073890;28;20052;-44
2024/01/15 00:42:50;;;;;;;53.47;28.30;;;;;;;-0.42;100.00;99003.31;5074169;28;20062;-43
2024/01/15 00:45:19;;;;;;;63.97;29.13;;;;;;;-0.37;100.00;98987.47;5074011;28;20047;-44
2024/01/15 00:47:47;;;;;;;59.47;29.45;;;;;;;-0.19;100.00;98997.28;5074569;28;20132;-43
2024/01/15 00:50:17;;;;;;;54.58;28.95;;;;;;;-0.20;100.00;98997.31;5074336;28;20454;-43
2024/01/15 00:52:48;;;;;;;61.35;30.60;;;;;;;-0.10;100.00;98989.03;5073992;28;20087;-44
2024/01/15 00:55:19;;;;;;;61.10;31.10;;;;;;;-0.15;100.00;98988.38;5074333;28;20051;-42
2024/01/15 00:57:47;;;;;;;66.20;31.00;;;;;;;-0.13;100.00;98976.06;5073825;28;20140;-44
2024/01/15 01:00:20;;;;;;;65.18;31.55;;;;;;;-0.06;100.00;98977.56;5073906;28;20118;-42
2024/01/15 01:02:48;;;;;;;60.63;29.83;;;;;;;-0.03;100.00;98980.06;5073970;28;20140;-44
2024/01/15 01:05:17;;;;;;;69.32;31.90;;;;;;;-0.05;100.00;98974.00;5073725;28;20564;-44
2024/01/15 01:07:48;;;;;;;61.92;30.15;;;;;;;0.07;100.00;98975.31;5073579;28;20395;-44
2024/01/15 01:10:17;;;;;;;62.05;31.35;;;;;;;0.03;100.00;98968.50;5073928;28;20048;-44
2024/01/15 01:12:45;;;;;;;60.72;30.65;;;;;;;0.02;100.00;98961.53;5073399;28;20056;-45
2024/01/15 01:15:14;;;;;;;60.15;29.80;;;;;;;-0.08;100.00;98958.41;5073309;28;20523;-44
2024/01/15 01:17:45;;;;;;;61.53;31.35;;;;;;;-0.15;100.00;98956.06;5073678;28;20071;-47
2024/01/15 01:20:15;;;;;;;60.00;31.40;;;;;;;-0.06;100.00;98953.09;5073504;28;20470;-44
2024/01/15 01:22:46;;;;;;;60.63;31.58;;;;;;;-0.02;100.00;98942.44;5073698;28;20068;-43
2024/01/15 01:25:15;;;;;;;60.35;31.23;;;;;;;0.02;100.00;98942.34;5073259;28;20049;-43
2024/01/15 01:27:43;;;;;;;60.45;30.20;;;;;;;0.06;100.00;98938.69;5074040;28;20508;-44
2024/01/15 01:30:12;;;;;;;61.35;31.23;;;;;;;0.12;100.00;98941.06;5073197;28;20040;-43
2024/01/15 01:32:41;;;;;;;58.28;29.10;;;;;;;0.14;100.00;98940.09;5073294;28;20087;-43
2024/01/15 01:35:11;;;;;;;60.70;30.80;;;;;;;0.12;100.00;98943.69;5073583;28;20131;-44
2024/01/15 01:37:39;;;;;;;58.78;31.42;;;;;;;0.07;100.00;98937.75;5073353;28;20055;-43
2024/01/15 01:40:09;;;;;;;60.70;30.35;;;;;;;0.10;100.00;98932.41;5073039;28;20060;-44
2024/01/15 01:42:37;;;;;;;58.25;28.88;;;;;;;0.16;100.00;98916.44;5073126;28;20079;-43
2024/01/15 01:45:07;;;;;;;56.50;29.95;;;;;;;0.16;100.00;98911.19;5072669;28;20072;-44
2024/01/15 01:47:39;;;;;;;58.97;29.20;;;;;;;0.16;100.00;98905.94;5072801;28;20048;-44
2024/01/15 01:50:08;;;;;;;54.70;29.83;;;;;;;0.11;100.00;98915.78;5073766;28;20417;-44
2024/01/15 01:52:41;;;;;;;59.85;29.95;;;;;;;0.07;100.00;98911.53;5071842;28;20563;-45
2024/01/15 01:55:12;;;;;;;58.80;30.65;;;;;;;-0.08;100.00;98908.63;5074234;28;20141;-44
2024/01/15 01:57:41;;;;;;;56.45;29.20;;;;;;;-0.18;100.00;98895.91;5073523;28;20048;-44
2024/01/15 02:00:11;;;;;;;58.95;30.13;;;;;;;-0.26;100.00;98890.97;5071282;28;20470;-44
2024/01/15 02:02:40;;;;;;;56.50;29.98;;;;;;;-0.15;100.00;98891.41;5072324;28;20044;-43
2024/01/15 02:05:12;;;;;;;58.55;30.48;;;;;;;-0.27;100.00;98886.63;5072364;28;20052;-44
2024/01/15 02:07:42;;;;;;;59.42;30.60;;;;;;;-0.25;100.00;98886.56;5071361;28;20072;-44
2024/01/15 02:10:10;;;;;;;56.78;30.38;;;;;;;-0.20;100.00;98882.84;5072493;28;20040;-44
2024/01/15 02:12:42;;;;;;;60.97;31.75;;;;;;;-0.28;100.00;98871.84;5071105;28;20430;-43
2024/01/15 02:15:10;;;;;;;58.75;30.95;;;;;;;-0.31;100.00;98866.69;5072250;28;20117;-43
2024/01/15 02:18:00;;;;;;;61.33;31.08;;;;;;;-0.28;100.00;98874.44;5071965;28;20121;-45
2024/01/15 02:20:30;;;;;;;59.28;29.85;;;;;;;-0.22;100.00;98879.44;5072245;28;20560;-43
2024/01/15 02:23:11;;;;;;;60.25;30.65;;;;;;;-0.22;100.00;98871.56;5072337;28;20053;-44
2024/01/15 02:25:41;;;;;;;59.63;30.30;;;;;;;-0.18;100.00;98891.53;5072733;28;20049;-44
2024/01/15 02:28:11;;;;;;;63.83;30.67;;;;;;;-0.20;100.00;98887.25;5072428;28;20048;-43
2024/01/15 02:30:40;;;;;;;60.72;30.45;;;;;;;-0.22;100.00;98895.16;5072143;28;20040;-43
2024/01/15 02:33:09;;;;;;;59.58;30.70;;;;;;;-0.25;100.00;98874.31;5072162;28;20044;-44
2024/01/15 02:35:38;;;;;;;60.25;31.40;;;;;;;-0.21;100.00;98870.66;5072956;28;20048;-42
2024/01/15 02:38:09;;;;;;;58.38;30.42;;;;;;;-0.23;100.00;98872.50;5071977;28;20179;-43
2024/01/15 02:40:39;;;;;;;60.83;31.42;;;;;;;-0.18;100.00;98864.47;5072251;28;20097;-44
2024/01/15 02:43:07;;;;;;;61.63;31.70;;;;;;;-0.09;100.00;98849.25;5072556;28;20094;-43
2024/01/15 02:45:35;;;;;;;60.13;30.52;;;;;;;-0.30;100.00;98848.28;5072047;28;20098;-43
2024/01/15 02:48:06;;;;;;;56.40;30.10;;;;;;;-0.33;100.00;98847.56;5072175;28;20049;-42
2024/01/15 02:50:35;;;;;;;62.97;30.95;;;;;;;-0.36;100.00;98850.31;5072438;28;20040;-43
2024/01/15 02:53:04;;;;;;;62.25;31.77;;;;;;;-0.39;100.00;98855.63;5070974;28;20053;-42
2024/01/15 02:55:34;;;;;;;56.72;29.85;;;;;;;-0.43;100.00;98854.06;5071617;28;20105;-44
2024/01/15 02:58:03;;;;;;;63.47;32.20;;;;;;;-0.49;100.00;98844.66;5072222;28;20049;-44
2024/01/15 03:00:33;;;;;;;61.80;30.70;;;;;;;-0.39;100.00;98853.88;5072113;28;20174;-43
2024/01/15 03:03:05;;;;;;;57.38;30.00;;;;;;;-0.39;100.00;98846.00;5072768;28;20041;-45
2024/01/15 03:05:36;;;;;;;60.20;31.55;;;;;;;-0.40;100.00;98849.53;5071831;28;20052;-44
2024/01/15 03:08:05;;;;;;;60.25;31.50;;;;;;;-0.41;100.00;98841.75;5071401;28;20607;-43
2024/01/15 03:10:37;;;;;;;56.00;30.05;;;;;;;-0.57;100.00;98824.94;5072556;28;20523;-43
2024/01/15 03:13:05;;;;;;;60.15;30.88;;;;;;;-0.53;100.00;98831.75;5072718;28;20140;-44
2024/01/15 03:15:34;;;;;;;59.25;30.35;;;;;;;-0.61;100.00;98816.31;5072353;28;20056;-42
2024/01/15 03:18:04;;;;;;;63.20;32.10;;;;;;;-0.56;100.00;98805.69;5072109;28;20087;-42
2024/01/15 03:20:33;;;;;;;59.25;30.95;;;;;;;-0.52;100.00;98799.41;5072267;28;20244;-44
2024/01/15 03:23:03;;;;;;;62.22;31.00;;;;;;;-0.47;100.00;98807.94;5072141;28;20055;-44
2024/01/15 03:25:36;;;;;;;58.83;31.75;;;;;;;-0.57;100.00;98801.34;5071247;28;20044;-43
2024/01/15 03:28:05;;;;;;;62.42;31.67;;;;;;;-0.70;100.00;98793.94;5071813;28;20051;-44
2024/01/15 03:30:33;;;;;;;60.25;31.42;;;;;;;-0.95;100.00;98806.25;5071620;28;20087;-46
2024/01/15 03:33:01;;;;;;;69.20;32.08;;;;;;;-0.98;100.00;98808.97;5072003;28;20076;-44
2024/01/15 03:35:30;;;;;;;61.45;31.80;;;;;;;-0.93;100.00;98812.28;5072321;28;20048;-43
2024/01/15 03:37:59;;;;;;;58.05;31.30;;;;;;;-0.88;100.00;98810.34;5072125;28;20050;-46
2024/01/15 03:40:27;;;;;;;61.10;31.00;;;;;;;-0.80;100.00;98831.00;5071504;28;20379;-43
2024/01/15 03:42:57;;;;;;;66.25;33.13;;;;;;;-0.95;100.00;98801.88;5072004;28;20049;-43
2024/01/15 03:45:26;;;;;;;74.78;33.20;;;;;;;-1.03;100.00;98817.00;5071596;28;20114;-44
2024/01/15 03:47:54;;;;;;;63.78;33.35;;;;;;;-0.90;100.00;98838.34;5071382;28;20500;-43
2024/01/15 03:50:25;;;;;;;64.07;33.03;;;;;;;-0.75;100.00;98826.47;5071519;28;20139;-43
2024/01/15 03:52:56;;;;;;;61.55;31.70;;;;;;;-0.60;100.00;98845.06;5071590;28;20087;-45
2024/01/15 03:55:25;;;;;;;64.55;31.92;;;;;;;-0.64;100.00;98825.16;5071595;28;20044;-43
2024/01/15 03:57:53;;;;;;;63.42;32.28;;;;;;;-0.55;100.00;98823.09;5071764;28;20550;-44
2024/01/15 04:00:23;;;;;;;61.63;31.77;;;;;;;-0.67;100.00;98825.28;5071320;28;20417;-43
2024/01/15 04:02:52;;;;;;;63.33;32.28;;;;;;;-0.73;100.00;98827.25;5071296;28;20118;-45
2024/01/15 04:05:20;;;;;;;63.83;31.45;;;;;;;-0.80;100.00;98817.91;5072000;28;20075;-44
2024/01/15 04:07:52;;;;;;;62.22;31.95;;;;;;;-0.71;100.00;98818.41;5073834;28;20044;-45
2024/01/15 04:10:24;;;;;;;58.05;32.03;;;;;;;-0.62;100.00;98823.31;5075630;28;20048;-43
2024/01/15 04:12:52;;;;;;;66.05;33.65;;;;;;;-0.61;100.00;98818.94;5076201;28;20122;-44
2024/01/15 04:15:21;;;;;;;64.28;32.60;;;;;;;-0.70;100.00;98801.78;5075994;28;20136;-43
2024/01/15 04:17:50;;;;;;;61.97;32.60;;;;;;;-0.85;100.00;98780.59;5075915;28;20055;-43
2024/01/15 04:20:19;;;;;;;55.28;30.33;;;;;;;-0.77;100.00;98788.97;5076160;28;20088;-43
2024/01/15 04:22:52;;;;;;;58.67;31.40;;;;;;;-0.74;100.00;98781.03;5075233;28;20048;-44
2024/01/15 04:25:21;;;;;;;62.40;31.70;;;;;;;-0.67;100.00;98782.53;5075679;28;20110;-44
2024/01/15 04:27:52;;;;;;;66.47;33.00;;;;;;;-0.71;100.00;98787.00;5075240;28;20408;-44
2024/01/15 04:30:21;;;;;;;69.25;33.25;;;;;;;-0.70;100.00;98767.75;5075880;28;20052;-45
2024/01/15 04:32:51;;;;;;;66.97;33.45;;;;;;;-0.71;100.00;98779.16;5074865;28;20045;-44
2024/01/15 04:35:19;;;;;;;59.58;32.90;;;;;;;-0.73;100.00;98767.88;5074737;28;20091;-43
2024/01/15 04:37:47;;;;;;;63.20;32.72;;;;;;;-0.77;100.00;98768.91;5074888;28;20071;-43
2024/01/15 04:40:16;;;;;;;65.75;33.28;;;;;;;-0.83;100.00;98773.53;5075345;28;20894;-44
2024/01/15 04:42:45;;;;;;;66.65;33.42;;;;;;;-0.90;100.00;98760.66;5073995;28;20049;-42
2024/01/15 04:45:14;;;;;;;62.08;32.78;;;;;;;-0.80;100.00;98784.72;5074456;28;20108;-43
2024/01/15 04:47:42;;;;;;;62.50;32.28;;;;;;;-0.91;100.00;98773.81;5074836;28;20371;-44
2024/01/15 04:50:12;;;;;;;65.88;33.97;;;;;;;-0.93;100.00;98775.63;5074766;28;20094;-44
2024/01/15 04:52:40;;;;;;;65.05;32.95;;;;;;;-0.71;100.00;98776.53;5074330;28;20045;-44
2024/01/15 04:55:12;;;;;;;62.83;34.47;;;;;;;-0.75;100.00;98771.47;5074975;28;20044;-45
2024/01/15 04:57:40;;;;;;;64.45;32.35;;;;;;;-0.74;100.00;98766.19;5073715;28;20518;-43
2024/01/15 05:00:10;;;;;;;62.13;32.38;;;;;;;-0.69;100.00;98769.47;5075044;28;20131;-42
2024/01/15 05:02:38;;;;;;;63.30;32.92;;;;;;;-0.79;100.00;98773.34;5074356;28;20045;-43
2024/01/15 05:05:07;;;;;;;60.03;32.05;;;;;;;-0.81;100.00;98769.94;5073873;28;20456;-43
2024/01/15 05:07:37;;;;;;;62.08;33.30;;;;;;;-0.78;100.00;98774.19;5074390;28;20082;-44
2024/01/15 05:10:08;;;;;;;61.47;33.23;;;;;;;-0.81;100.00;98785.63;5074245;28;20052;-43
2024/01/15 05:12:37;;;;;;;62.55;33.08;;;;;;;-0.80;100.00;98782.09;5074857;28;20178;-43
2024/01/15 05:15:06;;;;;;;67.28;34.55;;;;;;;-0.77;100.00;98787.25;5075498;28;20049;-44
2024/01/15 05:17:34;;;;;;;69.70;34.03;;;;;;;-0.85;100.00;98786.69;5075020;28;20493;-44
2024/01/15 05:20:03;;;;;;;63.38;34.05;;;;;;;-0.78;100.00;98796.00;5075116;28;20186;-43
2024/01/15 05:22:31;;;;;;;64.10;32.88;;;;;;;-0.78;100.00;98796.00;5075291;28;20057;-42
2024/01/15 05:25:04;;;;;;;65.72;34.95;;;;;;;-0.79;100.00;98793.44;5074053;28;20493;-43
2024/01/15 05:27:32;;;;;;;71.77;35.47;;;;;;;-0.79;100.00;98793.44;5074425;28;20044;-44
2024/01/15 05:30:03;;;;;;;64.13;32.75;;;;;;;-0.85;100.00;98783.22;5074336;28;20048;-44
2024/01/15 05:32:33;;;;;;;63.08;33.13;;;;;;;-0.83;100.00;98786.63;5074169;28;20409;-45
2024/01/15 05:35:02;;;;;;;63.53;33.28;;;;;;;-0.80;100.00;98783.88;5074497;28;20409;-42
2024/01/15 05:37:31;;;;;;;65.15;33.90;;;;;;;-0.92;100.00;98779.97;5074361;28;20044;-43
2024/01/15 05:40:01;;;;;;;63.13;33.42;;;;;;;-0.85;100.00;98789.28;5075228;28;20051;-45
2024/01/15 05:42:30;;;;;;;66.80;34.50;;;;;;;-0.81;100.00;98796.13;5075157;28;20044;-43
2024/01/15 05:45:02;;;;;;;70.32;34.30;;;;;;;-1.01;100.00;98789.00;5074330;28;20102;-43
2024/01/15 05:47:30;;;;;;;63.35;33.17;;;;;;;-1.02;100.00;98796.91;5073823;28;20098;-42
2024/01/15 05:49:59;;;;;;;63.38;34.72;;;;;;;-1.02;100.00;98799.53;5073473;28;20048;-43
2024/01/15 05:52:28;;;;;;;70.03;33.95;;;;;;;-1.07;100.00;98801.44;5073559;28;20131;-43
2024/01/15 05:54:56;;;;;;;69.03;34.03;;;;;;;-1.01;100.00;98798.63;5073321;28;20044;-44
2024/01/15 05:57:26;;;;;;;68.60;35.88;;;;;;;-1.10;100.00;98798.94;5073652;28;20048;-44
2024/01/15 05:59:55;;;;;;;71.88;35.13;;;;;;;-1.30;100.00;98797.91;5073668;28;20044;-43
2024/01/15 06:02:24;;;;;;;69.95;34.97;;;;;;;-1.34;100.00;98790.22;5073357;28;20110;-44
2024/01/15 06:04:52;;;;;;;69.93;35.17;;;;;;;-1.29;100.00;98783.91;5073185;28;20044;-46
2024/01/15 06:07:22;;;;;;;73.28;35.35;;;;;;;-1.13;100.00;98778.13;5073314;28;20102;-44
2024/01/15 06:09:51;;;;;;;74.80;35.97;;;;;;;-1.04;100.00;98769.94;5072567;28;20494;-44
2024/01/15 06:12:19;;;;;;;71.00;36.28;;;;;;;-1.13;100.00;98767.66;5073543;28;20048;-47
2024/01/15 06:14:49;;;;;;;72.22;35.95;;;;;;;-1.30;100.00;98758.66;5074874;28;20048;-45
2024/01/15 06:17:17;;;;;;;75.80;36.83;;;;;;;-1.44;100.00;98768.75;5074664;28;20036;-43
2024/01/15 06:19:46;;;;;;;70.97;36.67;;;;;;;-1.30;100.00;98771.72;5071965;28;20131;-42
2024/01/15 06:22:14;;;;;;;72.20;35.47;;;;;;;-1.26;100.00;98781.16;5073158;28;20041;-44
2024/01/15 06:24:44;;;;;;;73.15;35.33;;;;;;;-1.29;100.00;98773.44;5072425;28;20049;-44
2024/01/15 06:27:16;;;;;;;71.25;35.42;;;;;;;-1.23;100.00;98777.59;5073205;28;20056;-43
2024/01/15 06:29:46;;;;;;;69.90;35.92;;;;;;;-1.10;100.00;98780.63;5073451;28;20052;-45
2024/01/15 06:32:19;;;;;;;68.50;34.00;;;;;;;-1.05;100.00;98786.56;5071544;28;20049;-44
2024/01/15 06:34:49;;;;;;;69.32;34.97;;;;;;;-1.05;100.00;98773.47;5073685;28;20056;-44
2024/01/15 06:37:18;;;;;;;64.93;34.70;;;;;;;-1.11;100.00;98781.53;5072658;28;20060;-43
2024/01/15 06:39:47;;;;;;;68.22;35.38;;;;;;;-1.08;100.00;98784.03;5073586;28;20201;-43
2024/01/15 06:42:15;;;;;;;66.20;34.75;;;;;;;-1.26;100.00;98785.53;5073288;28;20048;-44
2024/01/15 06:44:44;;;;;;;68.03;35.60;;;;;;;-1.37;100.00;98785.94;5072340;28;20532;-43
2024/01/15 06:47:12;;;;;;;73.05;35.60;;;;;;;-1.35;100.00;98793.72;5072348;28;20127;-43
2024/01/15 06:49:42;;;;;;;69.38;34.03;;;;;;;-1.48;100.00;98798.53;5071931;28;20052;-46
2024/01/15 06:52:13;;;;;;;76.40;36.95;;;;;;;-1.45;100.00;98787.94;5071885;28;20135;-43
2024/01/15 06:54:41;;;;;;;69.03;34.97;;;;;;;-1.60;100.00;98791.97;5071700;28;20482;-42
2024/01/15 06:57:10;;;;;;;70.00;35.33;;;;;;;-1.76;100.00;98788.16;5071698;28;20486;-42
2024/01/15 06:59:38;;;;;;;69.18;34.83;;;;;;;-1.57;100.00;98788.38;5072218;28;20072;-43
2024/01/15 07:02:06;;;;;;;73.75;36.28;;;;;;;-1.59;100.00;98785.81;5071727;28;20083;-44
2024/01/15 07:04:35;;;;;;;71.07;37.20;;;;;;;-1.57;100.00;98794.47;5072206;28;20054;-43
2024/01/15 07:07:05;;;;;;;70.05;36.60;;;;;;;-1.65;100.00;98793.03;5071985;28;20044;-44
2024/01/15 07:09:34;;;;;;;79.68;38.60;;;;;;;-1.42;100.00;98797.47;5072051;28;20477;-44
2024/01/15 07:12:03;;;;;;;80.20;39.00;;;;;;;-1.28;100.00;98793.44;5070976;28;20076;-44
2024/01/15 07:14:31;;;;;;;78.40;39.22;;;;;;;-1.30;100.00;98792.66;5070763;28;20056;-44
2024/01/15 07:17:00;;;;;;;80.50;39.00;;;;;;;-1.31;100.00;98796.19;5072724;28;20440;-43
2024/01/15 07:19:28;;;;;;;77.75;38.08;;;;;;;-1.38;100.00;98797.31;5071801;28;20055;-43
2024/01/15 07:21:56;;;;;;;79.30;39.60;;;;;;;-1.29;100.00;98809.22;5072034;28;20417;-43
2024/01/15 07:24:26;;;;;;;82.32;40.00;;;;;;;-1.33;100.00;98808.47;5071569;28;20123;-43
2024/01/15 07:26:54;;;;;;;82.40;39.85;;;;;;;-1.38;100.00;98805.16;5071362;28;20438;-45
2024/01/15 07:29:25;;;;;;;80.40;41.15;;;;;;;-1.42;100.00;98821.88;5071445;28;20048;-42
2024/01/15 07:31:54;;;;;;;78.95;39.00;;;;;;;-1.47;100.00;98811.53;5072116;28;20098;-45
2024/01/15 07:34:22;;;;;;;80.60;41.88;;;;;;;-1.35;100.00;98815.53;5071835;28;20136;-44
2024/01/15 07:36:51;;;;;;;81.05;39.97;;;;;;;-1.29;100.00;98814.44;5071193;28;20045;-43
2024/01/15 07:39:20;;;;;;;77.35;39.22;;;;;;;-1.17;100.00;98807.00;5071478;28;20056;-44
2024/01/15 07:41:50;;;;;;;83.03;40.42;;;;;;;-1.07;100.00;98814.53;5071752;28;20048;-44
2024/01/15 07:44:18;;;;;;;114.28;52.20;;;;;;;-1.03;100.00;98824.00;5075198;28;20044;-43
2024/01/15 07:46:47;;;;;;;116.10;52.08;;;;;;;-1.03;100.00;98829.22;5075240;28;20135;-42
2024/01/15 07:49:16;;;;;;;81.90;39.70;;;;;;;-1.02;100.00;98833.56;5074960;28;20045;-42
2024/01/15 07:51:45;;;;;;;74.07;38.08;;;;;;;-0.94;100.00;98839.38;5074799;28;20049;-45
2024/01/15 07:54:13;;;;;;;71.00;37.15;;;;;;;-0.88;100.00;98836.50;5074686;28;20520;-44
2024/01/15 07:56:58;;;;;;;70.80;38.55;;;;;;;-0.91;100.00;98840.09;5074899;28;20045;-43
2024/01/15 07:59:27;;;;;;;77.35;38.05;;;;;;;-0.82;100.00;98831.06;5062461;28;20041;-45
2024/01/15 08:02:00;;;;;;;80.50;39.70;;;;;;;-0.82;100.00;98824.97;5074425;28;20083;-43
2024/01/15 08:04:28;;;;;;;80.10;40.08;;;;;;;-0.59;100.00;98823.19;5074072;28;20075;-44
2024/01/15 08:06:57;;;;;;;83.45;39.05;;;;;;;-0.51;100.00;98809.81;5073895;28;20052;-47
2024/01/15 08:09:26;;;;;;;77.32;38.05;;;;;;;-0.57;100.00;98830.16;5074279;28;20108;-43
2024/01/15 08:11:54;;;;;;;76.72;38.67;;;;;;;-0.50;100.00;98829.84;5074531;28;20045;-44
2024/01/15 08:14:24;;;;;;;74.45;38.42;;;;;;;-0.44;100.00;98831.41;5074079;28;20052;-44
2024/01/15 08:16:52;;;;;;;78.93;36.95;;;;;;;-0.33;100.00;98855.41;5074279;28;20083;-43
2024/01/15 08:19:21;;;;;;;74.88;37.17;;;;;;;-0.35;100.00;98847.63;5073992;28;20496;-44
2024/01/15 08:21:51;;;;;;;74.80;37.13;;;;;;;-0.15;100.00;98854.72;5073860;28;20063;-43
2024/01/15 08:24:19;;;;;;;69.35;34.35;;;;;;;-0.08;100.00;98845.69;5074742;28;20056;-43
2024/01/15 08:26:48;;;;;;;55.45;30.15;;;;;;;-0.05;100.00;98853.44;5074093;28;20045;-42
2024/01/15 08:29:18;;;;;;;49.92;27.23;;;;;;;0.07;100.00;98843.38;5074484;28;20052;-43
2024/01/15 08:31:50;;;;;;;58.28;29.90;;;;;;;0.23;100.00;98855.81;5074008;28;20211;-42
2024/01/15 08:34:19;;;;;;;53.67;27.13;;;;;;;0.39;100.00;98845.56;5074603;28;20058;-44
2024/01/15 08:36:47;;;;;;;53.13;27.08;;;;;;;0.51;100.00;98852.91;5074725;28;20050;-46
2024/01/15 08:39:16;;;;;;;49.08;25.58;;;;;;;0.61;100.00;98860.41;5075743;28;20044;-44
2024/01/15 08:41:44;;;;;;;51.55;25.92;;;;;;;0.70;100.00;98853.00;5074798;28;20409;-42
2024/01/15 08:44:13;;;;;;;46.38;23.75;;;;;;;0.74;100.00;98857.19;5074021;28;20090;-43
2024/01/15 08:46:41;;;;;;;39.28;20.67;;;;;;;0.82;100.00;98849.84;5074206;28;20057;-43
2024/01/15 08:49:11;;;;;;;42.38;21.65;;;;;;;1.02;100.00;98848.13;5075101;28;20051;-45
2024/01/15 08:51:40;;;;;;;35.00;17.58;;;;;;;1.14;100.00;98858.09;5075846;28;20106;-45
2024/01/15 08:54:09;;;;;;;31.83;17.25;;;;;;;1.21;100.00;98856.06;5074764;28;20044;-43
2024/01/15 08:56:37;;;;;;;35.97;17.02;;;;;;;1.31;100.00;98862.59;5074303;28;20106;-43
2024/01/15 08:59:05;;;;;;;31.60;16.23;;;;;;;1.35;100.00;98864.16;5075651;28;20417;-43
2024/01/15 09:01:34;;;;;;;34.22;16.75;;;;;;;1.53;100.00;98865.97;5074880;28;20420;-45
2024/01/15 09:04:03;;;;;;;34.33;17.98;;;;;;;1.46;100.00;98861.94;5074623;28;20044;-44
2024/01/15 09:06:33;;;;;;;34.10;16.15;;;;;;;1.68;100.00;98865.28;5074508;28;20052;-44
2024/01/15 09:09:02;;;;;;;30.92;16.58;;;;;;;1.65;100.00;98865.41;5074610;28;20053;-43
2024/01/15 09:11:31;;;;;;;33.80;16.63;;;;;;;1.71;100.00;98877.41;5074505;28;20051;-45
2024/01/15 09:14:00;;;;;;;29.50;15.55;;;;;;;1.55;100.00;98866.78;5074443;28;20094;-44
2024/01/15 09:16:28;;;;;;;31.23;16.05;;;;;;;1.53;100.00;98873.84;5074036;28;20131;-43
2024/01/15 09:18:57;;;;;;;29.70;15.38;;;;;;;1.71;100.00;98873.00;5074095;28;20052;-44
2024/01/15 09:21:26;;;;;;;31.80;16.20;;;;;;;1.82;100.00;98869.03;5073842;28;20523;-45
2024/01/15 09:23:56;;;;;;;31.25;15.18;;;;;;;1.67;100.00;98860.94;5073598;28;20094;-44
2024/01/15 09:26:27;;;;;;;28.10;14.63;;;;;;;1.86;100.00;98862.72;5073104;28;20483;-43
2024/01/15 09:28:57;;;;;;;27.90;14.32;;;;;;;1.83;100.00;98860.22;5073953;28;20083;-45
2024/01/15 09:31:25;;;;;;;27.85;14.32;;;;;;;1.99;100.00;98841.03;5073396;28;20041;-43
2024/01/15 09:33:56;;;;;;;27.63;14.50;;;;;;;2.08;100.00;98829.22;5073218;28;20139;-44
2024/01/15 09:36:25;;;;;;;25.13;13.82;;;;;;;2.14;100.00;98830.69;5073282;28;20076;-45
2024/01/15 09:38:54;;;;;;;28.20;13.77;;;;;;;2.18;100.00;98835.72;5074674;28;20552;-44
2024/01/15 09:41:25;;;;;;;27.90;13.23;;;;;;;2.33;100.00;98838.56;5075646;28;20128;-43
2024/01/15 09:43:53;;;;;;;25.90;13.70;;;;;;;2.47;100.00;98825.56;5074630;28;20094;-44
2024/01/15 09:46:22;;;;;;;25.58;13.15;;;;;;;2.69;100.00;98828.78;5073870;28;20385;-44
2024/01/15 09:48:50;;;;;;;19.73;11.27;;;;;;;2.79;100.00;98816.00;5073388;28;20060;-43
2024/01/15 09:51:18;;;;;;;23.80;12.23;;;;;;;2.62;100.00;98811.63;5073965;28;20083;-44
2024/01/15 09:53:48;;;;;;;21.80;11.65;;;;;;;2.51;100.00;98812.19;5072563;28;20044;-44
2024/01/15 09:56:17;;;;;;;21.83;11.23;;;;;;;2.51;100.00;98800.75;5072794;28;20044;-42
2024/01/15 09:58:48;;;;;;;26.15;11.23;;;;;;;2.58;100.00;98791.63;5072892;28;20048;-43
2024/01/15 10:01:18;;;;;;;21.25;10.70;;;;;;;2.54;100.00;98795.38;5072838;28;20487;-46
2024/01/15 10:03:50;;;;;;;17.63;10.05;;;;;;;2.63;100.00;98784.38;5073287;28;20040;-45
2024/01/15 10:06:19;;;;;;;21.83;10.07;;;;;;;2.58;100.00;98792.50;5073163;28;20479;-43
2024/01/15 10:08:52;;;;;;;22.23;10.45;;;;;;;2.65;100.00;98776.41;5073215;28;20048;-45
2024/01/15 10:11:20;;;;;;;17.48;9.57;;;;;;;2.74;100.00;98782.03;5073016;28;20044;-44
2024/01/15 10:13:52;;;;;;;18.58;9.70;;;;;;;2.70;100.00;98780.50;5072770;28;20044;-45
2024/01/15 10:16:26;;;;;;;18.83;9.88;;;;;;;2.69;100.00;98778.78;5072580;28;20139;-50
2024/01/15 10:18:58;;;;;;;22.58;9.75;;;;;;;2.85;100.00;98774.44;5073052;28;20046;-45
2024/01/15 10:21:27;;;;;;;22.02;9.65;;;;;;;2.83;100.00;98776.28;5072764;28;20429;-46
2024/01/15 10:23:55;;;;;;;22.10;9.63;;;;;;;2.94;100.00;98766.97;5072680;28;20048;-44
2024/01/15 10:26:26;;;;;;;15.45;8.40;;;;;;;2.96;100.00;98765.97;5073511;28;20272;-47
2024/01/15 10:28:56;;;;;;;17.70;8.68;;;;;;;3.02;100.00;98759.53;5073452;28;20106;-46
2024/01/15 10:31:24;;;;;;;17.02;8.70;;;;;;;3.09;100.00;98760.91;5072976;28;20489;-52
2024/01/15 10:34:11;;;;;;;15.10;7.78;;;;;;;3.12;100.00;98755.47;5073180;28;20045;-46
2024/01/15 10:36:40;;;;;;;16.42;8.48;;;;;;;3.20;100.00;98753.28;5072767;28;20048;-45
2024/01/15 10:39:09;;;;;;;15.63;8.13;;;;;;;3.27;100.00;98756.41;5073269;28;20052;-46
2024/01/15 10:41:37;;;;;;;15.60;8.13;;;;;;;3.31;100.00;98748.28;5073530;28;20056;-45
2024/01/15 10:44:07;;;;;;;18.20;8.05;;;;;;;3.31;100.00;98740.38;5073127;28;20071;-45
2024/01/15 10:46:38;;;;;;;20.13;8.32;;;;;;;3.30;100.00;98754.47;5073573;28;20098;-45
2024/01/15 10:49:08;;;;;;;15.00;7.65;;;;;;;3.24;100.00;98743.41;5075161;28;20362;-44
2024/01/15 10:51:37;;;;;;;15.27;7.78;;;;;;;3.21;100.00;98754.97;5073818;28;20060;-44
2024/01/15 10:54:11;;;;;;;14.98;7.78;;;;;;;3.22;100.00;98754.03;5073556;28;20401;-44
2024/01/15 10:56:41;;;;;;;18.92;8.20;;;;;;;3.30;100.00;98759.75;5072919;28;20481;-44
2024/01/15 10:59:12;;;;;;;14.70;6.97;;;;;;;3.33;100.00;98758.72;5072475;28;20044;-45
2024/01/15 11:01:43;;;;;;;14.48;7.45;;;;;;;3.34;100.00;98761.28;5073089;28;20048;-44
2024/01/15 11:04:12;;;;;;;14.60;7.18;;;;;;;3.37;100.00;98749.69;5072910;28;20055;-47
2024/01/15 11:06:50;;;;;;;13.68;7.38;;;;;;;3.39;100.00;98743.44;5072375;28;20573;-43
2024/01/15 11:09:20;;;;;;;15.77;7.57;;;;;;;3.44;100.00;98740.53;5073962;28;20044;-47
2024/01/15 11:11:52;;;;;;;14.50;6.82;;;;;;;3.62;100.00;98746.56;5073093;28;20048;-45
2024/01/15 11:14:43;;;;;;;15.68;8.07;;;;;;;3.64;100.00;98742.06;5073438;28;20098;-45
2024/01/15 11:17:13;;;;;;;13.93;7.25;;;;;;;3.72;100.00;98731.94;5071618;28;20085;-44
2024/01/15 11:19:46;;;;;;;16.13;6.78;;;;;;;3.77;100.00;98727.28;5071818;28;20080;-43
2024/01/15 11:22:48;;;;;;;21.38;7.47;;;;;;;3.79;100.00;98732.47;5071887;28;20128;-44